createdAt,value
2022-08-14T00:01:32.060Z,11.65
2022-08-14T00:03:58.938Z,11.50
2022-08-14T00:06:28.896Z,11.63
2022-08-14T00:08:59.271Z,11.73
2022-08-14T00:11:28.869Z,12.00
2022-08-14T00:13:59.781Z,12.23
2022-08-14T00:16:40.471Z,12.98
2022-08-14T00:19:19.057Z,12.65
2022-08-14T00:21:50.088Z,12.90
2022-08-14T00:24:23.329Z,12.27
2022-08-14T00:27:02.010Z,13.32
2022-08-14T00:29:33.114Z,13.00
2022-08-14T00:32:51.792Z,11.77
2022-08-14T00:34:54.397Z,12.80
2022-08-14T00:37:23.514Z,13.25
2022-08-14T00:39:51.206Z,11.98
2022-08-14T00:42:55.484Z,12.70
2022-08-14T00:45:13.885Z,13.23
2022-08-14T00:47:45.026Z,12.70
2022-08-14T00:50:16.718Z,12.68
2022-08-14T00:52:47.426Z,12.85
2022-08-14T00:55:19.924Z,12.73
2022-08-14T00:58:08.151Z,12.90
2022-08-14T01:00:37.364Z,13.07
2022-08-14T01:03:10.608Z,13.75
2022-08-14T01:05:50.976Z,13.25
2022-08-14T01:08:51.318Z,12.20
2022-08-14T01:11:09.692Z,13.02
2022-08-14T01:13:42.854Z,13.13
2022-08-14T01:16:16.306Z,12.73
2022-08-14T01:19:05.304Z,13.25
2022-08-14T01:21:38.868Z,13.20
2022-08-14T01:24:23.029Z,12.95
2022-08-14T01:27:00.539Z,13.23
2022-08-14T01:29:58.521Z,13.95
2022-08-14T01:32:23.187Z,14.38
2022-08-14T01:35:20.920Z,13.63
2022-08-14T01:37:54.523Z,14.32
2022-08-14T01:40:33.178Z,13.10
2022-08-14T01:43:07.934Z,13.52
2022-08-14T01:45:40.549Z,13.57
2022-08-14T01:48:13.970Z,14.00
2022-08-14T01:50:44.135Z,13.90
2022-08-14T01:53:12.619Z,13.98
2022-08-14T01:55:40.651Z,13.98
2022-08-14T01:58:18.641Z,14.35
2022-08-14T02:00:54.127Z,13.93
2022-08-14T02:03:21.181Z,14.05
2022-08-14T02:05:49.625Z,14.07
2022-08-14T02:08:22.570Z,13.75
2022-08-14T02:11:17.153Z,14.00
2022-08-14T02:13:47.685Z,13.90
2022-08-14T02:16:22.338Z,13.75
2022-08-14T02:18:50.304Z,14.05
2022-08-14T02:21:19.437Z,14.05
2022-08-14T02:23:53.676Z,14.15
2022-08-14T02:29:04.836Z,13.88
2022-08-14T02:31:36.410Z,14.30
2022-08-14T02:34:20.033Z,14.27
2022-08-14T02:37:05.430Z,15.35
2022-08-14T02:39:40.329Z,13.70
2022-08-14T02:42:13.012Z,14.07
2022-08-14T02:44:48.999Z,13.60
2022-08-14T02:47:20.511Z,14.52
2022-08-14T02:49:50.460Z,14.43
2022-08-14T02:52:55.576Z,13.43
2022-08-14T02:55:09.545Z,14.43
2022-08-14T02:57:40.100Z,13.77
2022-08-14T03:00:10.540Z,13.85
2022-08-14T03:02:56.224Z,13.67
2022-08-14T03:05:24.824Z,12.95
2022-08-14T03:07:52.940Z,13.63
2022-08-14T03:10:26.319Z,13.07
2022-08-14T03:12:55.532Z,14.70
2022-08-14T03:15:22.885Z,13.77
2022-08-14T03:17:57.290Z,28.40
2022-08-14T03:20:30.182Z,13.80
2022-08-14T03:23:00.121Z,14.77
2022-08-14T03:25:27.533Z,13.43
2022-08-14T03:27:58.972Z,14.23
2022-08-14T03:30:40.040Z,14.05
2022-08-14T03:33:10.858Z,14.40
2022-08-14T03:35:59.714Z,14.32
2022-08-14T03:39:15.117Z,14.10
2022-08-14T03:41:20.371Z,14.85
2022-08-14T03:44:01.527Z,14.73
2022-08-14T03:46:54.850Z,14.32
2022-08-14T03:49:29.394Z,14.68
2022-08-14T03:52:07.819Z,14.90
2022-08-14T03:54:52.678Z,13.90
2022-08-14T03:57:20.259Z,13.52
2022-08-14T03:59:49.685Z,13.75
2022-08-14T04:02:32.530Z,13.82
2022-08-14T04:05:11.636Z,14.38
2022-08-14T04:07:39.176Z,13.93
2022-08-14T04:10:17.661Z,13.73
2022-08-14T04:12:59.959Z,13.80
2022-08-14T04:15:30.695Z,14.32
2022-08-14T04:17:59.073Z,14.27
2022-08-14T04:20:28.442Z,14.85
2022-08-14T04:22:55.660Z,14.77
2022-08-14T04:25:22.813Z,14.50
2022-08-14T04:28:01.687Z,14.13
2022-08-14T04:30:32.582Z,14.88
2022-08-14T04:33:05.540Z,14.67
2022-08-14T04:35:55.493Z,14.63
2022-08-14T04:38:42.631Z,15.05
2022-08-14T04:41:30.487Z,14.98
2022-08-14T04:43:58.240Z,14.27
2022-08-14T04:46:55.728Z,14.18
2022-08-14T04:49:15.183Z,14.38
2022-08-14T04:51:46.974Z,14.13
2022-08-14T04:56:51.600Z,13.75
2022-08-14T04:59:22.215Z,14.47
2022-08-14T05:01:52.887Z,14.77
2022-08-14T05:04:25.036Z,14.43
2022-08-14T05:06:54.927Z,18.42
2022-08-14T05:09:23.818Z,18.27
2022-08-14T05:11:51.623Z,17.15
2022-08-14T05:14:46.641Z,16.15
2022-08-14T05:17:06.882Z,16.10
2022-08-14T05:19:36.541Z,16.00
2022-08-14T05:22:17.313Z,15.70
2022-08-14T05:24:51.352Z,15.55
2022-08-14T05:27:22.749Z,15.90
2022-08-14T05:29:56.922Z,16.33
2022-08-14T05:32:27.454Z,17.13
2022-08-14T05:34:58.912Z,16.13
2022-08-14T05:37:27.327Z,17.20
2022-08-14T05:39:55.497Z,17.05
2022-08-14T05:42:29.283Z,16.88
2022-08-14T05:44:59.525Z,17.73
2022-08-14T05:47:28.759Z,19.38
2022-08-14T05:50:01.794Z,17.45
2022-08-14T05:52:39.114Z,19.55
2022-08-14T05:55:09.433Z,19.00
2022-08-14T05:57:47.404Z,17.63
2022-08-14T06:00:28.314Z,18.92
2022-08-14T06:02:56.662Z,18.48
2022-08-14T06:05:24.345Z,18.88
2022-08-14T06:07:57.539Z,18.42
2022-08-14T06:10:25.266Z,19.20
2022-08-14T06:12:57.021Z,17.73
2022-08-14T06:15:29.419Z,17.88
2022-08-14T06:17:59.250Z,17.60
2022-08-14T06:20:27.920Z,16.85
2022-08-14T06:22:55.511Z,15.98
2022-08-14T06:25:23.850Z,17.58
2022-08-14T06:27:52.371Z,16.67
2022-08-14T06:30:23.655Z,17.58
2022-08-14T06:32:57.652Z,16.40
2022-08-14T06:35:25.015Z,16.08
2022-08-14T06:37:58.640Z,15.23
2022-08-14T06:40:28.446Z,16.92
2022-08-14T06:43:03.334Z,16.83
2022-08-14T06:45:42.063Z,15.57
2022-08-14T06:48:23.758Z,16.60
2022-08-14T06:50:54.480Z,18.15
2022-08-14T06:56:00.587Z,16.33
2022-08-14T06:58:30.748Z,15.00
2022-08-14T07:01:21.659Z,16.25
2022-08-14T07:04:23.183Z,16.35
2022-08-14T07:06:55.515Z,16.00
2022-08-14T07:09:25.679Z,15.65
2022-08-14T07:11:55.003Z,15.02
2022-08-14T07:14:23.147Z,15.60
2022-08-14T07:16:50.007Z,15.57
2022-08-14T07:19:20.864Z,17.67
2022-08-14T07:21:48.203Z,15.65
2022-08-14T07:24:21.686Z,18.08
2022-08-14T07:26:49.177Z,15.55
2022-08-14T07:29:17.458Z,16.52
2022-08-14T07:31:44.673Z,15.68
2022-08-14T07:34:13.308Z,14.55
2022-08-14T07:37:01.271Z,15.00
2022-08-14T07:39:28.388Z,18.13
2022-08-14T07:41:55.485Z,16.30
2022-08-14T07:44:29.002Z,16.77
2022-08-14T07:47:00.628Z,16.45
2022-08-14T07:49:27.967Z,16.25
2022-08-14T07:51:54.942Z,15.93
2022-08-14T07:54:23.207Z,15.45
2022-08-14T07:56:56.924Z,15.63
2022-08-14T07:59:40.854Z,16.23
2022-08-14T08:02:19.750Z,15.52
2022-08-14T08:04:58.992Z,15.05
2022-08-14T08:07:30.822Z,14.80
2022-08-14T08:09:59.580Z,14.75
2022-08-14T08:12:31.177Z,15.05
2022-08-14T08:15:03.023Z,15.27
2022-08-14T08:17:38.812Z,14.95
2022-08-14T08:20:11.745Z,15.57
2022-08-14T08:22:40.816Z,13.85
2022-08-14T08:25:13.826Z,13.95
2022-08-14T08:30:12.431Z,15.70
2022-08-14T08:32:41.415Z,14.68
2022-08-14T08:35:20.666Z,14.32
2022-08-14T08:37:48.620Z,14.77
2022-08-14T08:43:22.212Z,14.52
2022-08-14T08:46:21.250Z,14.40
2022-08-14T08:51:34.458Z,13.98
2022-08-14T08:54:15.142Z,13.55
2022-08-14T08:56:59.822Z,13.48
2022-08-14T08:59:34.218Z,14.10
2022-08-14T09:02:09.245Z,13.23
2022-08-14T09:04:44.982Z,12.95
2022-08-14T09:07:14.422Z,13.68
2022-08-14T09:10:01.721Z,12.95
2022-08-14T09:12:33.453Z,13.30
2022-08-14T09:15:12.627Z,12.57
2022-08-14T09:17:42.397Z,13.68
2022-08-14T09:20:11.671Z,13.05
2022-08-14T09:22:47.309Z,12.27
2022-08-14T09:25:16.479Z,13.80
2022-08-14T09:27:43.843Z,12.50
2022-08-14T09:30:31.100Z,12.98
2022-08-14T09:33:22.843Z,11.93
2022-08-14T09:35:56.963Z,12.38
2022-08-14T09:38:40.534Z,12.32
2022-08-14T09:41:26.116Z,12.68
2022-08-14T09:44:46.088Z,11.85
2022-08-14T09:47:17.219Z,12.32
2022-08-14T09:49:53.217Z,12.00
2022-08-14T09:52:32.610Z,11.63
2022-08-14T09:55:00.564Z,11.88
2022-08-14T09:57:31.334Z,11.73
2022-08-14T09:59:58.685Z,11.43
2022-08-14T10:02:27.923Z,10.70
2022-08-14T10:05:04.479Z,13.07
2022-08-14T10:07:59.068Z,12.30
2022-08-14T10:10:38.401Z,11.52
2022-08-14T10:13:23.587Z,10.88
2022-08-14T10:15:51.447Z,10.65
2022-08-14T10:24:37.241Z,10.23
2022-08-14T10:27:05.513Z,9.88
2022-08-14T10:29:34.963Z,9.95
2022-08-14T10:32:17.323Z,9.45
2022-08-14T10:34:52.779Z,10.88
2022-08-14T10:37:23.078Z,9.90
2022-08-14T10:40:10.391Z,10.70
2022-08-14T10:42:40.688Z,10.38
2022-08-14T10:45:24.415Z,9.27
2022-08-14T10:48:08.890Z,10.75
2022-08-14T10:50:42.475Z,9.80
2022-08-14T10:53:09.472Z,13.85
2022-08-14T10:55:45.423Z,11.43
2022-08-14T10:58:14.836Z,10.43
2022-08-14T11:00:56.566Z,10.25
2022-08-14T11:03:26.628Z,10.70
2022-08-14T11:06:22.393Z,9.95
2022-08-14T11:08:52.831Z,9.98
2022-08-14T11:11:22.858Z,12.82
2022-08-14T11:13:51.138Z,10.40
2022-08-14T11:16:18.328Z,10.43
2022-08-14T11:18:51.647Z,10.57
2022-08-14T11:21:23.313Z,10.15
2022-08-14T11:23:53.733Z,10.30
2022-08-14T11:26:24.359Z,9.70
2022-08-14T11:28:52.306Z,9.50
2022-08-14T11:31:23.566Z,9.27
2022-08-14T11:33:57.933Z,9.13
2022-08-14T11:36:35.484Z,9.52
2022-08-14T11:39:34.299Z,9.85
2022-08-14T11:42:56.608Z,11.20
2022-08-14T11:45:00.600Z,10.07
2022-08-14T11:47:35.585Z,9.52
2022-08-14T11:50:33.669Z,10.30
2022-08-14T11:53:05.564Z,9.75
2022-08-14T11:55:36.409Z,10.23
2022-08-14T11:58:10.635Z,9.68
2022-08-14T12:00:53.715Z,9.63
2022-08-14T12:03:27.026Z,9.00
2022-08-14T12:06:29.377Z,9.05
2022-08-14T12:08:59.828Z,10.02
2022-08-14T12:11:43.477Z,9.95
2022-08-14T12:14:29.764Z,9.73
2022-08-14T12:17:13.437Z,9.45
2022-08-14T12:20:02.956Z,9.80
2022-08-14T12:22:43.124Z,9.45
2022-08-14T12:25:24.954Z,9.75
2022-08-14T12:27:58.854Z,9.88
2022-08-14T12:30:38.373Z,10.07
2022-08-14T12:33:34.199Z,9.45
2022-08-14T12:36:08.171Z,9.93
2022-08-14T12:38:38.481Z,10.60
2022-08-14T12:41:20.515Z,9.63
2022-08-14T12:44:16.001Z,9.32
2022-08-14T12:46:47.394Z,9.43
2022-08-14T12:49:18.965Z,9.80
2022-08-14T12:51:57.598Z,9.50
2022-08-14T12:54:28.519Z,10.70
2022-08-14T12:57:19.817Z,9.10
2022-08-14T12:59:49.505Z,9.82
2022-08-14T13:02:25.662Z,9.80
2022-08-14T13:04:57.853Z,10.13
2022-08-14T13:07:32.666Z,9.15
2022-08-14T13:10:45.770Z,9.18
2022-08-14T13:13:12.629Z,9.13
2022-08-14T13:15:40.343Z,9.48
2022-08-14T13:18:10.488Z,9.25
2022-08-14T13:23:05.051Z,9.63
2022-08-14T13:25:35.404Z,10.43
2022-08-14T13:30:40.161Z,9.77
2022-08-14T13:33:07.686Z,8.73
2022-08-14T13:35:45.941Z,9.27
2022-08-14T13:38:13.527Z,9.10
2022-08-14T13:40:40.963Z,8.90
2022-08-14T13:43:09.388Z,8.73
2022-08-14T13:46:00.014Z,8.80
2022-08-14T13:48:32.459Z,8.82
2022-08-14T13:51:02.090Z,8.18
2022-08-14T13:53:33.780Z,8.60
2022-08-14T13:56:06.733Z,9.57
2022-08-14T13:58:47.084Z,9.43
2022-08-14T14:01:16.906Z,11.43
2022-08-14T14:03:50.048Z,8.80
2022-08-14T14:06:20.379Z,8.63
2022-08-14T14:08:48.864Z,8.85
2022-08-14T14:11:19.947Z,9.52
2022-08-14T14:13:48.608Z,8.65
2022-08-14T14:16:26.391Z,8.53
2022-08-14T14:19:09.814Z,8.30
2022-08-14T14:21:44.408Z,8.27
2022-08-14T14:24:14.781Z,8.63
2022-08-14T14:26:50.237Z,8.55
2022-08-14T14:29:24.286Z,8.45
2022-08-14T14:31:53.632Z,9.20
2022-08-14T14:34:29.993Z,7.78
2022-08-14T14:37:04.703Z,8.68
2022-08-14T14:39:35.398Z,11.82
2022-08-14T14:42:09.257Z,8.18
2022-08-14T14:44:41.257Z,8.15
2022-08-14T14:47:17.614Z,8.02
2022-08-14T14:49:55.158Z,8.25
2022-08-14T14:52:27.128Z,7.95
2022-08-14T14:54:57.122Z,7.90
2022-08-14T14:57:34.649Z,8.02
2022-08-14T15:00:18.587Z,7.72
2022-08-14T15:02:52.076Z,8.20
2022-08-14T15:05:20.409Z,8.23
2022-08-14T15:07:49.961Z,8.82
2022-08-14T15:13:00.141Z,7.95
2022-08-14T15:15:27.425Z,7.68
2022-08-14T15:17:55.117Z,7.00
2022-08-14T15:20:30.872Z,7.30
2022-08-14T15:23:12.141Z,9.05
2022-08-14T15:25:40.803Z,9.00
2022-08-14T15:28:12.698Z,9.02
2022-08-14T15:30:46.052Z,8.80
2022-08-14T15:34:08.264Z,8.15
2022-08-14T15:36:29.363Z,10.10
2022-08-14T15:38:57.173Z,8.88
2022-08-14T15:41:25.143Z,9.23
2022-08-14T15:43:53.091Z,10.20
2022-08-14T15:46:41.635Z,10.70
2022-08-14T15:49:10.894Z,9.05
2022-08-14T15:51:42.329Z,8.43
2022-08-14T15:54:11.446Z,9.27
2022-08-14T15:56:42.950Z,9.00
2022-08-14T15:59:13.096Z,7.65
2022-08-14T16:01:54.347Z,7.55
2022-08-14T16:04:23.804Z,8.23
2022-08-14T16:06:54.608Z,11.27
2022-08-14T16:09:22.693Z,9.13
2022-08-14T16:11:53.415Z,9.02
2022-08-14T16:14:21.567Z,8.35
2022-08-14T16:16:56.747Z,8.75
2022-08-14T16:19:43.994Z,8.15
2022-08-14T16:23:10.671Z,7.90
2022-08-14T16:25:02.913Z,7.65
2022-08-14T16:27:37.062Z,8.32
2022-08-14T16:30:20.640Z,7.63
2022-08-14T16:32:56.741Z,8.40
2022-08-14T16:35:42.740Z,7.45
2022-08-14T16:38:44.531Z,8.20
2022-08-14T16:41:27.015Z,7.32
2022-08-14T16:44:06.306Z,7.50
2022-08-14T16:46:48.823Z,7.80
2022-08-14T16:49:22.022Z,7.05
2022-08-14T16:51:52.678Z,7.30
2022-08-14T16:54:34.054Z,8.05
2022-08-14T16:57:22.579Z,7.53
2022-08-14T16:59:52.789Z,7.70
2022-08-14T17:02:41.841Z,7.85
2022-08-14T17:05:40.802Z,7.88
2022-08-14T17:08:32.738Z,8.95
2022-08-14T17:11:12.443Z,7.88
2022-08-14T17:13:58.717Z,8.88
2022-08-14T17:16:38.968Z,8.60
2022-08-14T17:19:09.988Z,7.93
2022-08-14T17:21:42.133Z,8.13
2022-08-14T17:24:55.769Z,8.57
2022-08-14T17:27:04.279Z,8.45
2022-08-14T17:29:34.833Z,8.13
2022-08-14T17:32:22.052Z,8.48
2022-08-14T17:34:57.737Z,8.45
2022-08-14T17:37:34.192Z,8.88
2022-08-14T17:40:15.035Z,9.10
2022-08-14T17:42:46.348Z,10.45
2022-08-14T17:45:27.206Z,10.25
2022-08-14T17:47:59.299Z,9.32
2022-08-14T17:51:03.191Z,9.13
2022-08-14T17:53:33.226Z,9.73
2022-08-14T17:56:04.067Z,9.40
2022-08-14T17:58:38.679Z,9.02
2022-08-14T18:01:13.138Z,9.45
2022-08-14T18:03:52.926Z,9.50
2022-08-14T18:06:39.767Z,8.55
2022-08-14T18:12:01.424Z,9.85
2022-08-14T18:14:32.360Z,11.90
2022-08-14T18:17:01.219Z,11.25
2022-08-14T18:19:30.488Z,11.32
2022-08-14T18:21:59.286Z,9.60
2022-08-14T18:24:29.887Z,9.18
2022-08-14T18:27:08.890Z,8.77
2022-08-14T18:29:55.529Z,11.30
2022-08-14T18:32:31.988Z,12.73
2022-08-14T18:35:03.620Z,13.20
2022-08-14T18:37:39.398Z,12.00
2022-08-14T18:40:17.629Z,11.82
2022-08-14T18:42:46.159Z,11.73
2022-08-14T18:45:28.582Z,11.48
2022-08-14T18:48:16.473Z,10.90
2022-08-14T18:51:04.316Z,10.27
2022-08-14T18:53:58.200Z,9.82
2022-08-14T18:56:57.663Z,10.40
2022-08-14T18:59:43.853Z,11.48
2022-08-14T19:02:30.283Z,10.93
2022-08-14T19:04:59.785Z,10.40
2022-08-14T19:07:33.917Z,10.05
2022-08-14T19:10:05.868Z,10.45
2022-08-14T19:12:57.676Z,10.52
2022-08-14T19:15:27.906Z,10.88
2022-08-14T19:18:14.997Z,11.13
2022-08-14T19:21:01.469Z,10.85
2022-08-14T19:23:42.707Z,10.40
2022-08-14T19:26:36.415Z,10.95
2022-08-14T19:29:37.528Z,10.57
2022-08-14T19:32:44.753Z,10.50
2022-08-14T19:35:19.180Z,10.98
2022-08-14T19:37:52.530Z,10.80
2022-08-14T19:40:39.230Z,13.30
2022-08-14T19:43:09.228Z,11.90
2022-08-14T19:45:38.342Z,10.70
2022-08-14T19:48:12.557Z,10.93
2022-08-14T19:50:41.101Z,11.45
2022-08-14T19:53:17.630Z,11.07
2022-08-14T19:55:59.311Z,10.70
2022-08-14T19:58:55.360Z,11.13
2022-08-14T20:01:38.037Z,10.10
2022-08-14T20:04:46.352Z,10.75
2022-08-14T20:07:00.109Z,11.60
2022-08-14T20:11:06.625Z,11.13
2022-08-14T20:12:29.277Z,16.05
2022-08-14T20:15:08.910Z,15.73
2022-08-14T20:17:40.232Z,12.85
2022-08-14T20:20:25.325Z,11.95
2022-08-14T20:22:58.735Z,11.77
2022-08-14T20:25:36.740Z,11.15
2022-08-14T20:28:29.910Z,10.80
2022-08-14T20:31:18.607Z,10.90
2022-08-14T20:34:18.946Z,10.43
2022-08-14T20:37:22.038Z,9.98
2022-08-14T20:39:54.649Z,10.18
2022-08-14T20:42:43.890Z,10.27
2022-08-14T20:45:18.007Z,10.10
2022-08-14T20:47:56.633Z,9.88
2022-08-14T20:50:28.589Z,10.20
2022-08-14T20:53:00.575Z,10.15
2022-08-14T20:55:30.540Z,10.27
2022-08-14T20:58:09.973Z,10.10
2022-08-14T21:00:57.812Z,10.40
2022-08-14T21:03:56.859Z,10.00
2022-08-14T21:06:27.060Z,10.35
2022-08-14T21:08:58.626Z,10.02
2022-08-14T21:11:28.068Z,10.30
2022-08-14T21:14:20.549Z,10.25
2022-08-14T21:16:58.961Z,10.38
2022-08-14T21:19:27.438Z,10.77
2022-08-14T21:21:56.067Z,11.13
2022-08-14T21:24:39.227Z,10.32
2022-08-14T21:27:20.384Z,11.43
2022-08-14T21:29:56.125Z,10.55
2022-08-14T21:32:35.086Z,10.93
2022-08-14T21:35:09.930Z,11.27
2022-08-14T21:37:45.975Z,11.90
2022-08-14T21:40:40.036Z,10.52
2022-08-14T21:43:04.932Z,11.20
2022-08-14T21:45:35.322Z,10.88
2022-08-14T21:48:11.100Z,11.48
2022-08-14T21:51:01.502Z,11.15
2022-08-14T21:53:33.882Z,11.75
2022-08-14T21:56:03.381Z,11.60
2022-08-14T21:58:53.259Z,11.15
2022-08-14T22:01:20.348Z,11.70
2022-08-14T22:03:55.291Z,12.13
2022-08-14T22:06:29.094Z,11.90
2022-08-14T22:08:58.163Z,12.48
2022-08-14T22:11:27.369Z,12.35
2022-08-14T22:13:56.114Z,12.45
2022-08-14T22:17:03.288Z,12.23
2022-08-14T22:19:18.770Z,12.18
2022-08-14T22:21:47.659Z,11.82
2022-08-14T22:24:37.564Z,11.20
2022-08-14T22:27:06.937Z,12.23
2022-08-14T22:29:34.718Z,12.15
2022-08-14T22:32:07.288Z,13.05
2022-08-14T22:34:34.313Z,13.13
2022-08-14T22:37:01.488Z,14.63
2022-08-14T22:40:17.765Z,13.52
2022-08-14T22:42:21.300Z,14.05
2022-08-14T22:44:51.867Z,13.80
2022-08-14T22:47:24.723Z,13.93
2022-08-14T22:50:32.127Z,14.13
2022-08-14T22:52:39.631Z,14.00
2022-08-14T22:55:07.425Z,14.15
2022-08-14T22:57:37.732Z,13.95
2022-08-14T23:00:25.444Z,14.55
2022-08-14T23:03:00.446Z,15.02
2022-08-14T23:05:39.821Z,13.85
2022-08-14T23:08:58.073Z,12.90
2022-08-14T23:11:05.080Z,14.23
2022-08-14T23:16:00.502Z,14.50
2022-08-14T23:18:29.884Z,14.20
2022-08-14T23:20:57.255Z,14.18
2022-08-14T23:23:24.574Z,14.07
2022-08-14T23:25:59.050Z,14.55
2022-08-14T23:28:35.043Z,15.45
2022-08-14T23:31:26.631Z,15.60
2022-08-14T23:34:07.301Z,16.27
2022-08-14T23:36:38.006Z,15.27
2022-08-14T23:39:32.483Z,15.38
2022-08-14T23:42:06.320Z,16.48
2022-08-14T23:44:37.487Z,15.38
2022-08-14T23:47:12.210Z,14.88
2022-08-14T23:50:01.471Z,15.02
2022-08-14T23:52:50.352Z,15.25
2022-08-14T23:55:26.257Z,15.82
2022-08-14T23:57:58.089Z,15.20
